Time;durP1;ratioP1;P1;durP2;ratioP2;P2;SDS_P1;SDS_P2;PMS_P1;PMS_P2;Temp;Humidity;BMP_temperature;BMP_pressure;BME280_temperature;BME280_humidity;BME280_pressure;Samples;Min_cycle;Max_cycle;Signal;HPM_P1;HPM_P2
2022/01/20 00:00:20;;;;;;;20.85;6.50;;;2.10;99.90;;;;;;4950363;28;20031;-63
2022/01/20 00:02:55;;;;;;;19.90;7.53;;;2.10;99.90;;;;;;4942463;28;20440;-62
2022/01/20 00:05:34;;;;;;;20.42;7.60;;;2.00;99.90;;;;;;4950002;28;20039;-62
2022/01/20 00:08:32;;;;;;;18.15;7.47;;;2.00;99.90;;;;;;4948120;28;20075;-62
2022/01/20 00:27:25;;;;;;;23.88;9.00;;;1.70;99.90;;;;;;4950026;28;20038;-66
2022/01/20 00:32:57;;;;;;;22.92;8.45;;;1.70;99.90;;;;;;4950229;28;20118;-63
2022/01/20 00:35:22;;;;;;;21.30;8.10;;;1.70;99.90;;;;;;4948687;28;20039;-63
2022/01/20 00:37:49;;;;;;;21.50;8.48;;;1.70;99.90;;;;;;4950162;28;20369;-64
2022/01/20 00:40:15;;;;;;;21.13;8.73;;;1.60;99.90;;;;;;4949727;28;20031;-63
2022/01/20 00:42:41;;;;;;;25.77;9.25;;;1.60;99.90;;;;;;4950141;28;20043;-63
2022/01/20 00:45:08;;;;;;;22.20;8.73;;;1.60;99.90;;;;;;4951014;28;20016;-64
2022/01/20 00:47:33;;;;;;;23.88;9.15;;;1.50;99.90;;;;;;4953393;28;20027;-63
2022/01/20 00:49:59;;;;;;;27.10;9.32;;;1.50;99.90;;;;;;4951541;28;20031;-63
2022/01/20 00:52:25;;;;;;;24.10;8.48;;;1.50;99.90;;;;;;4954141;28;20110;-63
2022/01/20 00:54:50;;;;;;;26.85;8.73;;;1.50;99.90;;;;;;4951011;28;20039;-63
2022/01/20 00:57:16;;;;;;;25.40;8.88;;;1.60;99.90;;;;;;4953624;28;20030;-63
2022/01/20 00:59:42;;;;;;;26.30;10.18;;;1.60;99.90;;;;;;4953477;28;20445;-63
2022/01/20 01:02:10;;;;;;;28.13;8.90;;;1.50;99.90;;;;;;4952604;29;20580;-63
2022/01/20 01:04:37;;;;;;;22.83;9.18;;;1.50;99.90;;;;;;4954086;28;20119;-63
2022/01/20 01:09:48;;;;;;;28.33;9.38;;;1.50;99.90;;;;;;4952400;28;20050;-63
2022/01/20 01:12:19;;;;;;;25.88;9.38;;;1.40;99.90;;;;;;4959440;28;20395;-64
2022/01/20 01:14:50;;;;;;;26.20;9.05;;;1.40;99.90;;;;;;4953852;28;20085;-64
2022/01/20 01:22:29;;;;;;;26.55;9.45;;;1.40;99.90;;;;;;4953259;28;20433;-64
2022/01/20 01:24:57;;;;;;;25.30;9.13;;;1.40;99.90;;;;;;4951564;28;20039;-63
2022/01/20 01:27:25;;;;;;;26.75;9.35;;;1.40;99.90;;;;;;4953366;28;20054;-63
2022/01/20 01:35:03;;;;;;;27.15;10.30;;;1.30;99.90;;;;;;4952424;28;20035;-62
2022/01/20 01:40:05;;;;;;;27.08;9.43;;;1.30;99.90;;;;;;4952535;28;20134;-63
2022/01/20 01:42:37;;;;;;;26.45;9.57;;;1.30;99.90;;;;;;4953417;29;20619;-64
2022/01/20 01:45:13;;;;;;;27.50;9.68;;;1.30;99.90;;;;;;4952318;28;20035;-62
2022/01/20 01:47:39;;;;;;;25.08;9.20;;;1.30;99.90;;;;;;4952654;28;20031;-62
2022/01/20 01:50:06;;;;;;;25.95;8.77;;;1.30;99.90;;;;;;4951885;28;20057;-64
2022/01/20 01:52:31;;;;;;;28.83;10.77;;;1.30;99.90;;;;;;4960499;28;20035;-63
2022/01/20 01:54:57;;;;;;;25.33;10.43;;;1.20;99.90;;;;;;4950744;28;20036;-62
2022/01/20 01:57:24;;;;;;;23.33;9.13;;;1.20;99.90;;;;;;4952566;28;20037;-63
2022/01/20 01:59:51;;;;;;;30.50;9.43;;;1.20;99.90;;;;;;4953454;29;20348;-64
2022/01/20 02:02:17;;;;;;;28.63;10.05;;;1.20;99.90;;;;;;4952021;28;20028;-64
2022/01/20 02:04:42;;;;;;;25.40;10.05;;;1.20;99.90;;;;;;4952604;28;20106;-63
2022/01/20 02:07:38;;;;;;;28.20;9.63;;;1.20;99.90;;;;;;4951835;28;20709;-64
2022/01/20 02:20:22;;;;;;;26.67;9.02;;;1.20;99.90;;;;;;4952414;28;20159;-64
2022/01/20 02:22:48;;;;;;;27.35;9.18;;;1.20;99.90;;;;;;4952320;28;20110;-63
2022/01/20 02:25:25;;;;;;;25.70;9.73;;;1.20;99.90;;;;;;4951819;28;20024;-62
2022/01/20 02:27:52;;;;;;;24.13;8.80;;;1.20;99.90;;;;;;4951449;28;20035;-63
2022/01/20 02:30:20;;;;;;;22.58;8.80;;;1.30;99.90;;;;;;4951669;28;20050;-63
2022/01/20 02:33:04;;;;;;;25.25;9.90;;;1.20;99.90;;;;;;4950907;29;20031;-63
2022/01/20 02:35:34;;;;;;;25.60;9.55;;;1.20;99.90;;;;;;4950341;28;20031;-64
2022/01/20 02:38:08;;;;;;;24.55;9.65;;;1.20;99.90;;;;;;4950689;28;20039;-62
2022/01/20 02:45:50;;;;;;;31.30;9.68;;;1.20;99.90;;;;;;4951123;28;20408;-63
2022/01/20 02:48:16;;;;;;;27.80;9.63;;;1.20;99.90;;;;;;4951171;28;20023;-64
2022/01/20 02:50:42;;;;;;;26.75;9.68;;;1.10;99.90;;;;;;4950448;28;20444;-64
2022/01/20 02:53:07;;;;;;;26.35;9.65;;;1.20;99.90;;;;;;4950790;28;20046;-64
2022/01/20 02:55:33;;;;;;;28.63;9.25;;;1.20;99.90;;;;;;4951431;28;20035;-63
2022/01/20 02:57:59;;;;;;;24.70;9.10;;;1.20;99.90;;;;;;4950665;28;20412;-63
2022/01/20 03:00:25;;;;;;;25.55;9.27;;;1.20;99.90;;;;;;4951612;28;20031;-64
2022/01/20 03:02:51;;;;;;;21.65;8.27;;;1.20;99.90;;;;;;4957129;28;20035;-63
2022/01/20 03:05:17;;;;;;;23.10;8.68;;;1.20;99.90;;;;;;4950349;28;20038;-64
2022/01/20 03:07:45;;;;;;;25.23;9.13;;;1.20;99.90;;;;;;4949802;28;20491;-64
2022/01/20 03:10:11;;;;;;;24.83;9.63;;;1.20;99.90;;;;;;4950096;28;20066;-63
2022/01/20 03:12:37;;;;;;;25.20;9.50;;;1.20;99.90;;;;;;4951970;28;20488;-63
2022/01/20 03:15:03;;;;;;;24.25;9.48;;;1.20;99.90;;;;;;4949970;28;20150;-64
2022/01/20 03:17:30;;;;;;;23.88;9.20;;;1.20;99.90;;;;;;4951169;29;20420;-64
2022/01/20 03:19:56;;;;;;;22.83;9.05;;;1.20;99.90;;;;;;4950934;28;20043;-63
2022/01/20 03:22:21;;;;;;;25.08;9.60;;;1.20;99.90;;;;;;4957311;28;20045;-63
2022/01/20 03:24:47;;;;;;;26.10;9.55;;;1.20;99.90;;;;;;4950953;29;20032;-63
2022/01/20 03:27:13;;;;;;;23.60;8.20;;;1.20;99.90;;;;;;4950394;28;20046;-63
2022/01/20 03:29:38;;;;;;;24.98;9.25;;;1.20;99.90;;;;;;4951248;28;20039;-63
2022/01/20 03:32:04;;;;;;;22.27;8.40;;;1.20;99.90;;;;;;4949847;28;20558;-63
2022/01/20 03:34:30;;;;;;;21.42;8.32;;;1.10;99.90;;;;;;4950943;28;20038;-63
2022/01/20 03:36:56;;;;;;;22.90;8.55;;;1.10;99.90;;;;;;4950761;28;20031;-63
2022/01/20 03:39:21;;;;;;;26.60;9.40;;;1.10;99.90;;;;;;4949293;28;20472;-63
2022/01/20 03:41:47;;;;;;;20.08;8.07;;;1.10;99.90;;;;;;4950840;28;20412;-63
2022/01/20 03:44:13;;;;;;;21.42;8.23;;;1.20;99.90;;;;;;4950275;28;20097;-63
2022/01/20 03:46:39;;;;;;;23.20;8.50;;;1.20;99.90;;;;;;4949387;28;20477;-62
2022/01/20 03:49:10;;;;;;;21.27;7.47;;;1.20;99.90;;;;;;4955561;28;20035;-63
2022/01/20 03:51:37;;;;;;;23.83;8.80;;;1.20;99.90;;;;;;4952550;28;20043;-64
2022/01/20 03:54:04;;;;;;;22.40;8.70;;;1.10;99.90;;;;;;4952356;28;20026;-63
2022/01/20 03:56:30;;;;;;;21.33;8.50;;;1.10;99.90;;;;;;4953804;28;20480;-63
2022/01/20 03:58:56;;;;;;;21.17;8.05;;;1.10;99.90;;;;;;4942900;28;20424;-62
2022/01/20 04:01:22;;;;;;;19.83;7.70;;;1.20;99.90;;;;;;4949082;28;20125;-63
2022/01/20 04:03:48;;;;;;;22.75;8.38;;;1.10;99.90;;;;;;4948346;28;20035;-63
2022/01/20 04:06:14;;;;;;;23.02;8.75;;;1.10;99.90;;;;;;4947440;28;20041;-63
2022/01/20 04:08:45;;;;;;;26.27;8.90;;;1.10;99.90;;;;;;4949710;28;20066;-61
2022/01/20 04:11:17;;;;;;;24.45;9.23;;;1.20;99.90;;;;;;4953167;28;20043;-62
2022/01/20 04:13:43;;;;;;;24.85;8.88;;;1.20;99.90;;;;;;4950245;28;20027;-62
2022/01/20 04:16:19;;;;;;;23.30;8.98;;;1.10;99.90;;;;;;4949413;28;20551;-62
2022/01/20 04:18:56;;;;;;;22.50;8.82;;;1.10;99.90;;;;;;4950515;28;20055;-63
2022/01/20 04:21:27;;;;;;;23.48;8.63;;;1.10;99.90;;;;;;4947826;29;20031;-63
2022/01/20 04:23:55;;;;;;;24.63;8.93;;;1.10;99.90;;;;;;4951097;28;20034;-62
2022/01/20 04:26:22;;;;;;;23.48;9.18;;;1.10;99.90;;;;;;4955964;28;20081;-62
2022/01/20 04:28:53;;;;;;;22.60;8.60;;;1.10;99.90;;;;;;4950659;28;20117;-63
2022/01/20 04:31:19;;;;;;;;;;;1.10;99.90;;;;;;4949501;28;20031;-61
2022/01/20 04:33:45;;;;;;;22.70;7.75;;;1.10;99.90;;;;;;4950041;28;20299;-62
2022/01/20 04:36:11;;;;;;;26.27;8.77;;;1.10;99.90;;;;;;4949152;28;20038;-63
2022/01/20 04:38:36;;;;;;;23.20;8.43;;;1.10;99.90;;;;;;4948884;29;20035;-63
2022/01/20 04:41:02;;;;;;;23.13;8.57;;;1.10;99.90;;;;;;4949354;28;20123;-63
2022/01/20 04:43:28;;;;;;;20.60;8.32;;;1.10;99.90;;;;;;4949791;28;20031;-63
2022/01/20 04:46:21;;;;;;;21.88;7.55;;;1.10;99.90;;;;;;4950806;28;20039;-63
2022/01/20 04:59:36;;;;;;;20.95;7.10;;;1.20;99.90;;;;;;4948614;28;20374;-64
2022/01/20 05:02:02;;;;;;;20.50;7.55;;;1.20;99.90;;;;;;4951525;28;20030;-64
2022/01/20 05:04:27;;;;;;;22.20;7.78;;;1.20;99.90;;;;;;4948477;29;20066;-63
2022/01/20 05:06:56;;;;;;;19.17;7.00;;;1.10;99.90;;;;;;4949650;28;20579;-63
2022/01/20 05:09:22;;;;;;;23.35;7.95;;;1.20;99.90;;;;;;4948961;28;20079;-64
2022/01/20 05:11:57;;;;;;;20.27;7.18;;;1.10;99.90;;;;;;4950071;28;20044;-63
2022/01/20 05:14:23;;;;;;;22.70;8.27;;;1.10;99.90;;;;;;4948407;28;20038;-62
2022/01/20 05:16:51;;;;;;;21.98;8.07;;;1.10;99.90;;;;;;4949607;28;20035;-63
2022/01/20 05:19:16;;;;;;;24.42;9.05;;;1.10;99.90;;;;;;4948695;28;20027;-65
2022/01/20 05:21:42;;;;;;;22.40;8.30;;;1.20;99.90;;;;;;4949773;29;20054;-64
2022/01/20 05:24:08;;;;;;;23.20;8.13;;;1.20;99.90;;;;;;4949270;29;20059;-65
2022/01/20 05:26:33;;;;;;;21.83;8.35;;;1.20;99.90;;;;;;4948793;28;20423;-67
2022/01/20 05:28:59;;;;;;;22.00;8.10;;;1.20;99.90;;;;;;4949829;29;20034;-67
2022/01/20 05:31:25;;;;;;;22.60;8.65;;;1.20;99.90;;;;;;4948524;28;20670;-66
2022/01/20 05:33:50;;;;;;;24.65;8.73;;;1.30;99.90;;;;;;4953672;28;20110;-66
2022/01/20 05:36:16;;;;;;;25.65;8.90;;;1.20;99.90;;;;;;4952138;29;20341;-66
2022/01/20 05:38:42;;;;;;;22.52;8.02;;;1.20;99.90;;;;;;4953149;28;20490;-68
2022/01/20 05:41:08;;;;;;;24.67;8.75;;;1.20;99.90;;;;;;4951818;28;20042;-67
2022/01/20 05:43:34;;;;;;;24.95;9.35;;;1.30;99.90;;;;;;4952738;28;20528;-67
2022/01/20 05:46:02;;;;;;;25.65;9.18;;;1.30;99.90;;;;;;4953148;29;20059;-67
2022/01/20 05:48:33;;;;;;;22.77;8.80;;;1.20;99.90;;;;;;4952224;28;20716;-67
2022/01/20 05:50:59;;;;;;;23.90;9.00;;;1.30;99.90;;;;;;4945402;28;20047;-67
2022/01/20 05:53:25;;;;;;;24.83;8.98;;;1.30;99.90;;;;;;4951865;28;20021;-66
2022/01/20 05:55:51;;;;;;;25.17;9.43;;;1.30;99.90;;;;;;4952119;28;20031;-67
2022/01/20 05:58:19;;;;;;;22.95;9.23;;;1.40;99.90;;;;;;4955773;28;20043;-68
2022/01/20 06:00:46;;;;;;;27.85;9.93;;;1.30;99.90;;;;;;4952329;28;20035;-67
2022/01/20 06:05:58;;;;;;;26.30;10.18;;;1.30;99.90;;;;;;4958134;28;20385;-67
2022/01/20 06:08:23;;;;;;;27.60;9.77;;;1.30;99.90;;;;;;4951434;28;20460;-67
2022/01/20 06:10:49;;;;;;;26.15;9.60;;;1.40;99.90;;;;;;4951998;28;20102;-70
2022/01/20 06:13:15;;;;;;;26.88;9.02;;;1.40;99.90;;;;;;4952087;28;20369;-68
2022/01/20 06:15:41;;;;;;;28.67;9.98;;;1.50;99.90;;;;;;4952369;29;20050;-67
2022/01/20 06:18:07;;;;;;;24.10;8.77;;;1.40;99.90;;;;;;4952241;28;20047;-69
2022/01/20 06:20:33;;;;;;;28.08;10.02;;;1.50;99.90;;;;;;4951856;28;20039;-68
2022/01/20 06:22:59;;;;;;;32.42;11.98;;;1.50;99.90;;;;;;4952003;28;20400;-69
2022/01/20 06:25:25;;;;;;;31.60;11.30;;;1.40;99.90;;;;;;4951594;28;20525;-68
2022/01/20 06:27:51;;;;;;;36.55;11.65;;;1.40;99.90;;;;;;4952175;28;20043;-67
2022/01/20 06:30:16;;;;;;;26.88;10.50;;;1.40;99.90;;;;;;4951023;28;20046;-65
2022/01/20 06:32:42;;;;;;;31.75;10.50;;;1.40;99.90;;;;;;4953413;28;20037;-67
2022/01/20 06:35:09;;;;;;;33.50;11.48;;;1.50;99.90;;;;;;4951764;28;20039;-68
2022/01/20 06:37:35;;;;;;;27.95;9.93;;;1.50;99.90;;;;;;4953503;28;20038;-67
2022/01/20 06:40:01;;;;;;;29.08;10.73;;;1.50;99.90;;;;;;4951591;28;20412;-68
2022/01/20 06:42:27;;;;;;;31.73;11.68;;;1.50;99.90;;;;;;4958683;28;20214;-68
2022/01/20 06:44:52;;;;;;;30.25;11.25;;;1.50;99.90;;;;;;4950943;28;20023;-68
2022/01/20 06:47:19;;;;;;;32.72;11.23;;;1.50;99.90;;;;;;4950689;28;20043;-68
2022/01/20 06:49:45;;;;;;;28.00;10.30;;;1.60;99.90;;;;;;4951589;28;20059;-67
2022/01/20 06:52:11;;;;;;;30.48;10.00;;;1.60;99.90;;;;;;4951310;28;20078;-68
2022/01/20 06:54:37;;;;;;;23.60;9.27;;;1.60;99.90;;;;;;4959400;28;20028;-66
2022/01/20 06:57:03;;;;;;;29.30;9.45;;;1.60;99.90;;;;;;4949812;28;20045;-66
2022/01/20 06:59:29;;;;;;;24.55;8.70;;;1.70;99.90;;;;;;4957410;28;20481;-68
2022/01/20 07:01:56;;;;;;;27.35;9.13;;;1.80;99.90;;;;;;4951482;28;20043;-68
2022/01/20 07:04:23;;;;;;;19.15;7.38;;;1.80;99.90;;;;;;4949857;28;20035;-67
2022/01/20 07:06:48;;;;;;;24.65;8.90;;;1.90;99.90;;;;;;4957977;28;20461;-68
2022/01/20 07:09:15;;;;;;;25.80;8.55;;;1.90;99.90;;;;;;4953891;28;20039;-68
2022/01/20 07:11:41;;;;;;;22.38;8.10;;;1.90;99.90;;;;;;4949645;28;20043;-69
2022/01/20 07:14:08;;;;;;;22.35;8.43;;;1.80;99.90;;;;;;4952054;29;20065;-69
2022/01/20 07:16:34;;;;;;;24.85;8.27;;;1.80;99.90;;;;;;4953780;28;20052;-65
2022/01/20 07:18:59;;;;;;;22.83;8.88;;;1.80;99.90;;;;;;4951504;28;20026;-65
2022/01/20 07:21:25;;;;;;;20.67;7.78;;;1.80;99.90;;;;;;4948898;28;20588;-68
2022/01/20 07:23:51;;;;;;;23.02;7.38;;;1.80;99.90;;;;;;4951100;28;20206;-66
2022/01/20 07:26:17;;;;;;;21.77;7.90;;;1.80;99.90;;;;;;4949568;28;20027;-67
2022/01/20 07:28:43;;;;;;;25.67;8.60;;;1.80;99.90;;;;;;4951124;28;20031;-67
2022/01/20 07:31:08;;;;;;;21.90;7.50;;;1.90;99.90;;;;;;4950460;28;20046;-66
2022/01/20 07:33:35;;;;;;;25.45;8.15;;;1.90;99.90;;;;;;4950686;28;20039;-68
2022/01/20 07:36:01;;;;;;;25.23;8.07;;;1.80;99.90;;;;;;4952042;28;20472;-66
2022/01/20 07:38:27;;;;;;;23.77;8.38;;;1.80;99.90;;;;;;4949897;28;20035;-67
2022/01/20 07:40:53;;;;;;;28.58;8.85;;;1.80;99.90;;;;;;4948860;28;20034;-66
2022/01/20 07:43:19;;;;;;;22.65;8.35;;;1.80;99.90;;;;;;4950190;28;20067;-65
2022/01/20 07:45:45;;;;;;;20.60;7.25;;;1.70;99.90;;;;;;4949945;29;20035;-66
2022/01/20 07:48:10;;;;;;;25.00;8.15;;;1.70;99.90;;;;;;4950963;28;20133;-66
2022/01/20 07:50:36;;;;;;;23.48;7.45;;;1.70;99.90;;;;;;4953780;28;20074;-66
2022/01/20 07:53:03;;;;;;;28.65;7.82;;;1.80;99.90;;;;;;4954722;28;20380;-65
2022/01/20 07:55:29;;;;;;;20.95;7.15;;;1.70;99.90;;;;;;4943983;28;20122;-66
2022/01/20 07:57:55;;;;;;;21.85;7.63;;;1.80;99.90;;;;;;4949378;28;20031;-68
2022/01/20 08:00:21;;;;;;;22.15;8.57;;;1.80;99.90;;;;;;4950056;29;20046;-67
2022/01/20 08:02:47;;;;;;;29.33;7.82;;;1.90;99.90;;;;;;4948366;28;20476;-68
2022/01/20 08:05:13;;;;;;;19.83;7.47;;;1.90;99.90;;;;;;4950047;28;20034;-68
2022/01/20 08:07:39;;;;;;;18.58;6.72;;;1.90;99.90;;;;;;4949213;28;20057;-68
2022/01/20 08:10:05;;;;;;;18.25;7.35;;;1.90;99.90;;;;;;4952982;28;20100;-66
2022/01/20 08:12:31;;;;;;;20.67;7.70;;;2.00;99.90;;;;;;4953163;28;20687;-67
2022/01/20 08:14:58;;;;;;;30.48;7.60;;;2.00;99.90;;;;;;4950228;28;20031;-65
2022/01/20 08:17:24;;;;;;;28.27;8.10;;;2.00;99.90;;;;;;4944779;28;20038;-65
2022/01/20 08:19:51;;;;;;;21.27;6.97;;;2.00;99.90;;;;;;4951900;28;20042;-65
2022/01/20 08:22:17;;;;;;;29.67;8.20;;;2.00;99.90;;;;;;4952570;28;20078;-65
2022/01/20 08:24:42;;;;;;;25.50;7.32;;;2.00;99.90;;;;;;4950171;28;20039;-65
2022/01/20 08:27:11;;;;;;;24.80;7.25;;;2.00;99.90;;;;;;4950496;29;20035;-65
2022/01/20 08:29:37;;;;;;;23.92;7.15;;;2.00;99.90;;;;;;4949563;28;20111;-65
2022/01/20 08:32:04;;;;;;;23.88;7.50;;;2.00;99.90;;;;;;4952842;28;20067;-65
2022/01/20 08:34:30;;;;;;;22.17;6.22;;;2.10;99.90;;;;;;4953007;28;20104;-68
2022/01/20 08:36:56;;;;;;;16.73;5.40;;;2.10;99.90;;;;;;4949847;28;20031;-66
2022/01/20 08:42:03;;;;;;;19.65;6.15;;;2.10;99.90;;;;;;4948130;28;20070;-65
2022/01/20 08:44:28;;;;;;;28.20;6.32;;;2.10;99.90;;;;;;4949515;29;20031;-66
2022/01/20 08:46:57;;;;;;;20.10;5.85;;;2.20;99.90;;;;;;4949359;28;20109;-67
2022/01/20 08:49:23;;;;;;;19.08;5.95;;;2.20;99.90;;;;;;4949022;28;20023;-65
2022/01/20 08:51:50;;;;;;;24.23;6.25;;;2.10;99.90;;;;;;4949584;28;20118;-65
2022/01/20 08:54:15;;;;;;;24.30;5.63;;;2.20;99.90;;;;;;4948560;28;20031;-67
2022/01/20 08:56:42;;;;;;;21.55;6.15;;;2.10;99.90;;;;;;4949752;28;20314;-65
2022/01/20 08:59:09;;;;;;;15.60;5.30;;;2.10;99.90;;;;;;4949915;28;20035;-66
2022/01/20 09:01:36;;;;;;;18.30;5.40;;;2.20;99.90;;;;;;4948180;28;20058;-66
2022/01/20 09:04:03;;;;;;;22.45;5.05;;;2.20;99.90;;;;;;4949490;28;20051;-66
2022/01/20 09:06:29;;;;;;;17.10;6.22;;;2.20;99.90;;;;;;4958317;28;20031;-66
2022/01/20 09:08:55;;;;;;;27.10;6.10;;;2.10;99.90;;;;;;4953377;28;20063;-66
2022/01/20 09:11:30;;;;;;;21.80;5.95;;;2.10;99.90;;;;;;4952994;29;20046;-65
2022/01/20 09:16:41;;;;;;;18.95;6.05;;;2.10;99.90;;;;;;4953349;29;20041;-67
2022/01/20 09:19:09;;;;;;;17.05;6.10;;;2.10;99.90;;;;;;4953380;29;20039;-65
2022/01/20 09:21:35;;;;;;;24.98;6.78;;;2.10;99.90;;;;;;4951458;29;20239;-67
2022/01/20 09:24:00;;;;;;;23.88;6.60;;;2.10;99.90;;;;;;4952563;28;20069;-66
2022/01/20 09:26:26;;;;;;;22.48;6.40;;;2.10;99.90;;;;;;4950791;28;20059;-65
2022/01/20 09:28:52;;;;;;;21.52;7.72;;;2.10;99.90;;;;;;4952999;28;20043;-67
2022/01/20 09:31:22;;;;;;;22.85;6.90;;;2.10;99.90;;;;;;4952499;28;20032;-68
2022/01/20 09:33:48;;;;;;;;;;;2.10;99.90;;;;;;4952332;28;20039;-67
2022/01/20 09:36:15;;;;;;;23.00;6.47;;;2.10;99.90;;;;;;4952548;28;20284;-66
2022/01/20 09:38:42;;;;;;;20.50;6.20;;;2.10;99.90;;;;;;4944883;29;20535;-66
2022/01/20 09:41:08;;;;;;;24.20;7.10;;;2.10;99.90;;;;;;4952518;28;20035;-66
2022/01/20 09:43:34;;;;;;;18.80;6.82;;;2.10;99.90;;;;;;4951207;28;20130;-68
2022/01/20 09:46:01;;;;;;;25.10;6.72;;;2.10;99.90;;;;;;4951345;28;20038;-66
2022/01/20 09:48:28;;;;;;;25.20;6.40;;;2.10;99.90;;;;;;4950593;28;20368;-67
2022/01/20 09:50:55;;;;;;;23.92;6.80;;;2.10;99.90;;;;;;4951491;28;20043;-66
2022/01/20 09:53:22;;;;;;;21.85;7.07;;;2.10;99.90;;;;;;4956331;28;20050;-68
2022/01/20 09:55:48;;;;;;;24.95;7.50;;;2.10;99.90;;;;;;4952746;28;20270;-67
2022/01/20 09:58:15;;;;;;;23.58;7.55;;;2.10;99.90;;;;;;4955246;28;20023;-68
2022/01/20 10:00:43;;;;;;;24.02;7.43;;;2.20;99.90;;;;;;4949841;28;20543;-67
2022/01/20 10:03:14;;;;;;;21.58;6.28;;;2.20;99.90;;;;;;4950985;28;20122;-68
2022/01/20 10:05:47;;;;;;;27.85;6.68;;;2.20;99.90;;;;;;4951435;28;20042;-69
2022/01/20 10:08:25;;;;;;;26.50;6.65;;;2.20;99.90;;;;;;4947767;28;20062;-67
2022/01/20 10:10:59;;;;;;;24.67;6.93;;;2.30;99.90;;;;;;4947627;28;20081;-67
2022/01/20 10:13:31;;;;;;;17.50;6.55;;;2.40;99.90;;;;;;4954963;28;20547;-68
2022/01/20 10:16:09;;;;;;;21.48;6.75;;;2.40;99.90;;;;;;4952398;28;20023;-69
2022/01/20 10:18:53;;;;;;;21.13;7.68;;;2.50;99.90;;;;;;4951408;28;20027;-68
2022/01/20 10:21:28;;;;;;;17.33;6.00;;;2.50;99.90;;;;;;4952713;28;20126;-66
2022/01/20 10:23:53;;;;;;;23.80;6.30;;;2.50;99.90;;;;;;4952184;28;20040;-66
2022/01/20 10:26:20;;;;;;;19.02;6.50;;;2.50;99.90;;;;;;4951665;28;20035;-69
2022/01/20 10:28:53;;;;;;;23.95;6.50;;;2.60;99.90;;;;;;4952147;29;20031;-68
2022/01/20 10:31:35;;;;;;;21.77;6.20;;;2.70;99.90;;;;;;4948359;28;20047;-65
2022/01/20 10:34:05;;;;;;;19.40;5.25;;;2.60;99.90;;;;;;4951636;28;20385;-66
2022/01/20 10:36:37;;;;;;;17.20;5.47;;;2.60;99.90;;;;;;4956876;28;20059;-65
2022/01/20 10:39:04;;;;;;;21.75;6.22;;;2.60;99.90;;;;;;4950416;28;20551;-68
2022/01/20 10:41:38;;;;;;;24.90;5.60;;;2.60;99.90;;;;;;4951542;28;20042;-65
2022/01/20 10:44:14;;;;;;;18.67;6.85;;;2.60;99.90;;;;;;4951943;28;20488;-68
2022/01/20 10:46:49;;;;;;;19.60;5.70;;;2.60;99.90;;;;;;4950860;28;20023;-67
2022/01/20 10:49:16;;;;;;;19.83;5.30;;;2.60;99.90;;;;;;4945755;28;20036;-64
2022/01/20 10:51:43;;;;;;;17.40;5.43;;;2.60;99.90;;;;;;4950581;28;20031;-68
2022/01/20 10:54:13;;;;;;;14.52;5.70;;;2.70;99.90;;;;;;4950386;28;20397;-67
2022/01/20 10:56:57;;;;;;;17.10;5.47;;;2.70;99.90;;;;;;4949233;29;20149;-68
2022/01/20 10:59:24;;;;;;;16.92;5.95;;;2.80;99.90;;;;;;4950505;28;20023;-69
2022/01/20 11:02:08;;;;;;;20.58;5.65;;;2.70;99.90;;;;;;4951683;28;20439;-66
2022/01/20 11:04:37;;;;;;;24.88;5.90;;;2.80;99.90;;;;;;4946443;28;20180;-66
2022/01/20 11:07:07;;;;;;;18.17;6.00;;;2.80;99.90;;;;;;4951142;28;20027;-66
2022/01/20 11:09:37;;;;;;;21.00;5.75;;;2.80;99.90;;;;;;4950512;28;20098;-66
2022/01/20 11:12:04;;;;;;;21.48;5.07;;;2.80;99.90;;;;;;4950206;28;20119;-66
2022/01/20 11:14:34;;;;;;;18.08;5.57;;;2.90;99.90;;;;;;4950187;28;20038;-66
2022/01/20 11:17:02;;;;;;;23.90;5.30;;;2.90;99.90;;;;;;4950159;28;20476;-67
2022/01/20 11:19:35;;;;;;;20.13;5.05;;;2.80;99.90;;;;;;4950251;29;20058;-65
2022/01/20 11:22:13;;;;;;;19.25;5.35;;;2.80;99.90;;;;;;4944785;28;20483;-65
2022/01/20 11:24:40;;;;;;;23.48;6.53;;;2.70;99.90;;;;;;4949852;28;20048;-65
2022/01/20 11:27:09;;;;;;;19.73;5.70;;;2.70;99.90;;;;;;4950214;28;20049;-65
2022/01/20 11:29:48;;;;;;;18.15;5.57;;;2.60;99.90;;;;;;4949721;28;20150;-65
2022/01/20 11:32:18;;;;;;;14.38;5.10;;;2.40;99.90;;;;;;4951288;28;20065;-64
2022/01/20 11:35:00;;;;;;;21.25;6.50;;;2.20;99.90;;;;;;4948264;28;20681;-65
2022/01/20 11:37:29;;;;;;;15.40;5.32;;;2.10;99.90;;;;;;4950478;28;20126;-64
2022/01/20 11:40:16;;;;;;;24.73;5.68;;;2.10;99.90;;;;;;4951687;28;20495;-64
2022/01/20 11:42:42;;;;;;;19.88;5.80;;;2.00;99.90;;;;;;4953025;28;20110;-64
2022/01/20 11:45:32;;;;;;;19.25;5.22;;;2.10;99.90;;;;;;4949582;28;20031;-64
2022/01/20 11:48:09;;;;;;;17.38;5.60;;;2.20;99.90;;;;;;4949605;28;20027;-63
2022/01/20 11:50:35;;;;;;;18.85;5.47;;;2.20;99.90;;;;;;4947452;28;20043;-64
2022/01/20 11:53:27;;;;;;;18.00;5.60;;;2.30;99.90;;;;;;4949218;28;20046;-63
2022/01/20 11:55:55;;;;;;;15.43;5.28;;;2.50;99.90;;;;;;4946834;29;20047;-63
2022/01/20 11:58:24;;;;;;;16.13;5.18;;;2.60;99.90;;;;;;4949948;29;20439;-63
2022/01/20 12:01:05;;;;;;;18.27;5.97;;;2.70;99.90;;;;;;4950960;28;20121;-63
2022/01/20 12:03:32;;;;;;;15.82;5.32;;;2.70;99.90;;;;;;4949672;28;20043;-63
2022/01/20 12:06:03;;;;;;;11.52;5.10;;;2.70;99.90;;;;;;4954461;28;20128;-64
2022/01/20 12:08:30;;;;;;;20.63;5.60;;;2.60;99.90;;;;;;4949248;28;20061;-63
2022/01/20 12:11:07;;;;;;;18.42;6.45;;;2.60;99.90;;;;;;4946862;28;20440;-64
2022/01/20 12:13:53;;;;;;;21.67;5.65;;;2.70;99.90;;;;;;4945872;28;20056;-62
2022/01/20 12:16:23;;;;;;;19.83;6.07;;;2.70;99.90;;;;;;4944739;29;20034;-62
2022/01/20 12:18:55;;;;;;;14.75;5.50;;;2.70;99.90;;;;;;4949764;28;20034;-64
2022/01/20 12:21:22;;;;;;;14.48;5.85;;;2.80;99.90;;;;;;4942203;28;20059;-62
2022/01/20 12:23:50;;;;;;;15.32;6.05;;;2.80;99.90;;;;;;4951272;28;20650;-64
2022/01/20 12:26:16;;;;;;;21.13;5.75;;;2.90;99.90;;;;;;4948497;28;20119;-64
2022/01/20 12:28:42;;;;;;;16.15;5.50;;;2.90;99.90;;;;;;4949236;28;20106;-62
2022/01/20 12:31:09;;;;;;;15.07;5.20;;;2.90;99.90;;;;;;4949639;28;20041;-63
2022/01/20 12:33:40;;;;;;;14.85;5.60;;;2.90;99.90;;;;;;4951015;28;20036;-63
2022/01/20 12:36:15;;;;;;;14.68;4.65;;;2.90;99.90;;;;;;4949596;28;20034;-64
2022/01/20 12:38:44;;;;;;;5.78;2.10;;;2.90;99.90;;;;;;4949174;28;20350;-63
2022/01/20 12:41:15;;;;;;;4.03;1.90;;;2.50;99.90;;;;;;4951751;28;20110;-64
2022/01/20 12:43:57;;;;;;;4.55;1.35;;;2.30;99.90;;;;;;4953549;28;20090;-65
2022/01/20 12:46:29;;;;;;;4.47;1.00;;;2.00;99.90;;;;;;4952733;28;20026;-64
2022/01/20 12:48:55;;;;;;;5.05;0.88;;;1.80;99.90;;;;;;4953105;28;20043;-66
2022/01/20 12:51:32;;;;;;;2.58;0.73;;;1.80;99.90;;;;;;4951917;28;20387;-63
2022/01/20 12:54:06;;;;;;;1.45;0.50;;;1.60;99.90;;;;;;4953907;29;20035;-64
2022/01/20 12:56:37;;;;;;;3.17;0.98;;;1.70;99.90;;;;;;4950657;28;21933;-64
2022/01/20 12:59:04;;;;;;;3.17;0.60;;;1.60;99.90;;;;;;4953432;28;20491;-64
2022/01/20 13:01:46;;;;;;;2.28;0.47;;;1.60;99.90;;;;;;4953131;28;20183;-64
2022/01/20 13:04:14;;;;;;;2.33;0.80;;;1.60;99.90;;;;;;4953768;28;20035;-64
2022/01/20 13:06:45;;;;;;;2.42;0.60;;;1.60;99.90;;;;;;4952770;28;20034;-63
2022/01/20 13:09:13;;;;;;;4.28;0.80;;;1.70;99.90;;;;;;4953674;28;20051;-63
2022/01/20 13:11:59;;;;;;;3.00;1.05;;;1.70;99.90;;;;;;4952482;28;20043;-64
2022/01/20 13:14:48;;;;;;;3.15;1.10;;;1.70;99.90;;;;;;4953656;28;20417;-64
2022/01/20 13:17:22;;;;;;;4.97;1.38;;;1.80;99.90;;;;;;4951612;28;20027;-64
2022/01/20 13:19:49;;;;;;;4.15;1.40;;;1.80;99.90;;;;;;4952441;28;20027;-64
2022/01/20 13:22:42;;;;;;;3.60;1.42;;;1.80;99.90;;;;;;4953354;28;20046;-64
2022/01/20 13:25:11;;;;;;;5.25;1.70;;;1.80;99.90;;;;;;4948049;28;20488;-64
2022/01/20 13:27:37;;;;;;;3.78;1.67;;;1.80;99.90;;;;;;4951820;28;20106;-64
2022/01/20 13:30:04;;;;;;;4.53;1.40;;;1.90;99.90;;;;;;4949032;28;21738;-63
2022/01/20 13:32:30;;;;;;;3.67;1.23;;;1.90;99.90;;;;;;4953006;28;20031;-62
2022/01/20 13:35:00;;;;;;;9.88;2.28;;;1.90;99.90;;;;;;4952893;28;20086;-62
2022/01/20 13:37:30;;;;;;;6.70;1.92;;;1.90;99.90;;;;;;4951170;28;20107;-62
2022/01/20 13:39:57;;;;;;;6.80;1.80;;;1.90;99.90;;;;;;4952780;28;20138;-62
2022/01/20 13:45:17;;;;;;;8.45;1.63;;;1.80;99.90;;;;;;4951548;28;20050;-62
2022/01/20 13:47:57;;;;;;;6.75;1.52;;;1.90;99.90;;;;;;4948591;28;20519;-63
2022/01/20 13:50:30;;;;;;;8.95;2.13;;;1.80;99.90;;;;;;4953395;28;20106;-62
2022/01/20 13:52:56;;;;;;;13.23;2.17;;;1.90;99.90;;;;;;4950000;28;20039;-63
2022/01/20 13:55:27;;;;;;;5.00;1.90;;;1.90;99.90;;;;;;4953320;28;20110;-64
2022/01/20 13:57:54;;;;;;;10.13;2.60;;;1.90;99.90;;;;;;4951315;28;20692;-63
2022/01/20 14:00:26;;;;;;;9.15;1.75;;;1.90;99.90;;;;;;4957138;28;20030;-63
2022/01/20 14:02:52;;;;;;;8.32;2.33;;;1.90;99.90;;;;;;4952373;28;20046;-63
2022/01/20 14:05:20;;;;;;;7.43;2.17;;;1.90;99.90;;;;;;4946972;29;20035;-62
2022/01/20 14:07:47;;;;;;;9.40;2.60;;;2.00;99.90;;;;;;4953235;28;20122;-62